Gibbstown, NJ (08027)

1:32 AM EST on December 29, 2014 (GMT -0500)
Widener Observatory | Change Station
CLOSE
Current Station
Personal Weather Station
Location: Chester, PA
Elevation: 85 ft
Nearby Weather Stations

Elev 85 ft 39.86 °N, 75.36 °W | Updated 2 minutes ago

Overcast
Overcast
44.8 °F
Feels Like 45 °F
N
0.0
Wind Variable Wind from NNE
Gusts 0.0 mph

Today
High -- | Low -- °F
--% Chance of Precip.
Yesterday
High -- | Low -- °F
Precip. -- in
7:21 AM 4:44 PM
First Quarter, 55% visible
Pressure 30.09 in
Visibility 10.0 miles
Clouds Few 3500 ft
Mostly Cloudy 5500 ft
Overcast 10000 ft
Windchill 45 °F
Dew Point 32 °F
Humidity 61%
Rainfall 0.00 in
Snow Depth Not available.
UV 0.0 out of 12
Pollen .10 out of 12
Air Quality Not available.
Flu Activity Not available.
METAR KPHL 290554Z 33006KT 10SM FEW035 BKN055 OVC100 08/02 A3009 RMK AO2 SLP189 60000 T00780017 10117 20078 50011

More Conditions Fewer Conditions

Pressure 30.09 in
Visibility 10.0 miles
Clouds Few 3500 ft
Mostly Cloudy 5500 ft
Overcast 10000 ft
Windchill 45 °F
Dew Point 32 °F
Humidity 61%
Rainfall 0.00 in
Snow Depth Not available.
UV 0.0 out of 12
Pollen .10 out of 12
Air Quality Not available.
Flu Activity Not available.
METAR KPHL 290554Z 33006KT 10SM FEW035 BKN055 OVC100 08/02 A3009 RMK AO2 SLP189 60000 T00780017 10117 20078 50011

More Conditions Fewer Conditions

10-Day Weather Forecast

Almanac

Astronomy

Dec. 29, 2014 Rise Set
Actual Time
Civil Twilight
Nautical Twilight
Astronomical Twilight
Moon
Length of Visible Light
Length of Day
Tomorrow will be .
, % of the Moon is Illuminated

Today's Extremes

State Highs State Lows

Community

WunderPhotos

Upload Photos

1,781,546 photos uploaded!

WunderBlogs® & News

Nearby

Air Quality

  Air Quality AQ Index Pollutant
Not available.

Snow Depth

Station Depth Elevation

Earthquake Activity

City Distance Mag. Time & Date
Minimum magnitude displayed is 2.5.

Coastal Water Temperatures

Place Temperature

Nearby Weather Stations